Time;durP1;ratioP1;P1;durP2;ratioP2;P2;SDS_P1;SDS_P2;PMS_P1;PMS_P2;Temp;Humidity;BMP_temperature;BMP_pressure;BME280_temperature;BME280_humidity;BME280_pressure;Samples;Min_cycle;Max_cycle;Signal;HPM_P1;HPM_P2
2021/10/20 00:09:27;;;;;;;9.05;4.25;;;17.20;64.40;;;;;;20807940;28;80337;-68
2021/10/20 00:19:30;;;;;;;12.40;5.40;;;17.20;64.70;;;;;;20806409;28;81262;-70
2021/10/20 00:29:32;;;;;;;;;;;17.10;64.90;;;;;;20806743;28;81099;-70
2021/10/20 00:39:34;;;;;;;7.70;4.70;;;17.00;64.80;;;;;;20827337;28;80857;-69
2021/10/20 00:49:37;;;;;;;8.68;4.18;;;16.90;65.20;;;;;;20804670;28;80636;-70
2021/10/20 00:59:40;;;;;;;9.40;4.20;;;16.90;65.40;;;;;;20802181;28;80047;-68
2021/10/20 01:09:42;;;;;;;9.00;4.72;;;16.80;65.80;;;;;;20803615;28;81741;-69
2021/10/20 01:19:45;;;;;;;7.43;4.47;;;16.60;66.00;;;;;;20803473;28;81818;-69
2021/10/20 01:29:47;;;;;;;6.22;4.18;;;16.60;66.20;;;;;;20802611;28;82058;-70
2021/10/20 01:39:51;;;;;;;11.40;4.78;;;16.50;66.50;;;;;;20800532;28;80680;-70
2021/10/20 01:49:56;;;;;;;18.02;4.65;;;16.40;66.80;;;;;;20800034;28;81024;-70
2021/10/20 01:59:59;;;;;;;7.70;4.13;;;16.20;67.10;;;;;;20800328;28;82063;-69
2021/10/20 02:10:10;;;;;;;8.87;4.57;;;16.10;67.50;;;;;;20800667;28;81769;-69
2021/10/20 02:20:14;;;;;;;6.88;4.18;;;16.00;67.50;;;;;;20798214;28;81847;-68
2021/10/20 02:30:18;;;;;;;11.85;4.38;;;15.90;67.60;;;;;;20797992;28;80784;-69
2021/10/20 02:40:20;;;;;;;6.47;4.13;;;15.80;67.90;;;;;;20798417;28;81960;-69
2021/10/20 02:50:28;;;;;;;9.13;4.47;;;15.80;67.70;;;;;;20797522;28;81951;-70
2021/10/20 03:00:31;;;;;;;8.50;4.82;;;15.80;67.60;;;;;;20808435;28;80827;-69
2021/10/20 03:10:34;;;;;;;7.35;4.65;;;15.70;67.70;;;;;;20809504;28;80645;-68
2021/10/20 03:20:38;;;;;;;10.57;4.50;;;15.60;68.00;;;;;;20809290;28;80913;-71
2021/10/20 03:30:40;;;;;;;9.90;4.43;;;15.70;68.10;;;;;;20807529;28;80081;-70
2021/10/20 03:40:43;;;;;;;8.50;4.50;;;15.60;68.10;;;;;;20809904;28;80871;-69
2021/10/20 03:50:46;;;;;;;8.33;4.50;;;15.50;68.20;;;;;;20808161;28;80850;-70
2021/10/20 04:00:52;;;;;;;10.45;5.80;;;15.40;68.40;;;;;;20807600;28;81022;-69
2021/10/20 04:11:13;;;;;;;6.70;4.40;;;15.40;68.70;;;;;;20805748;28;82445;-69
2021/10/20 04:21:22;;;;;;;10.40;4.65;;;15.20;68.90;;;;;;20807034;28;79817;-68
2021/10/20 04:31:30;;;;;;;9.32;5.10;;;15.20;69.10;;;;;;20804650;28;80843;-72
2021/10/20 04:41:43;;;;;;;9.30;4.88;;;15.10;69.20;;;;;;20796755;28;81088;-68
2021/10/20 04:52:05;;;;;;;11.18;5.32;;;15.00;69.40;;;;;;20793826;28;80484;-69
2021/10/20 05:02:19;;;;;;;6.72;4.57;;;15.00;69.60;;;;;;20804980;28;80742;-71
2021/10/20 05:12:29;;;;;;;9.65;5.13;;;14.90;69.70;;;;;;20811258;28;80701;-71
2021/10/20 05:22:32;;;;;;;9.75;5.07;;;14.90;69.70;;;;;;20862148;27;82102;-68
2021/10/20 05:32:34;;;;;;;8.53;5.03;;;14.80;69.90;;;;;;20871662;27;80588;-69
2021/10/20 05:42:37;;;;;;;;;;;14.70;70.10;;;;;;20871633;28;81015;-69
2021/10/20 05:52:41;;;;;;;10.50;4.82;;;14.60;70.00;;;;;;20891488;28;81505;-71
2021/10/20 06:02:43;;;;;;;8.80;5.20;;;14.70;70.30;;;;;;20868270;27;82266;-63
2021/10/20 06:12:45;;;;;;;13.87;4.87;;;14.70;70.50;;;;;;20872713;28;81932;-65
2021/10/20 06:22:48;;;;;;;11.63;5.60;;;14.90;70.50;;;;;;20870086;27;82061;-63
2021/10/20 06:32:50;;;;;;;20.30;7.00;;;14.90;70.40;;;;;;20871566;27;81766;-63
2021/10/20 06:42:52;;;;;;;13.13;6.07;;;15.00;69.90;;;;;;20868894;27;81980;-64
2021/10/20 06:52:54;;;;;;;19.30;6.85;;;15.10;69.50;;;;;;20868920;27;81611;-62
2021/10/20 07:02:58;;;;;;;15.52;6.72;;;15.20;69.40;;;;;;20868627;28;81784;-64
2021/10/20 07:13:00;;;;;;;18.67;8.00;;;15.40;69.10;;;;;;20866646;27;81924;-61
2021/10/20 07:23:02;;;;;;;18.17;7.73;;;15.70;68.30;;;;;;20868068;28;81835;-63
2021/10/20 07:33:05;;;;;;;20.88;8.40;;;16.00;67.10;;;;;;20870129;27;80765;-62
2021/10/20 07:43:10;;;;;;;12.15;6.32;;;16.30;65.90;;;;;;20875083;27;81658;-63
2021/10/20 07:53:13;;;;;;;14.07;6.22;;;16.40;65.30;;;;;;20881375;28;81981;-62
2021/10/20 08:03:16;;;;;;;18.45;6.43;;;16.50;64.60;;;;;;20880193;28;81722;-64
2021/10/20 08:13:18;;;;;;;19.47;6.23;;;17.00;63.40;;;;;;20877500;27;81434;-63
2021/10/20 08:23:25;;;;;;;8.85;4.55;;;17.60;61.60;;;;;;20877010;28;80846;-61
2021/10/20 08:33:28;;;;;;;13.55;5.25;;;18.00;59.90;;;;;;20872387;28;81829;-63
2021/10/20 08:43:31;;;;;;;11.73;5.18;;;18.40;58.80;;;;;;20870259;28;81075;-63
2021/10/20 08:53:34;;;;;;;7.75;5.25;;;18.90;57.60;;;;;;20870871;28;81919;-62
2021/10/20 09:03:36;;;;;;;8.67;5.27;;;19.40;56.30;;;;;;20877669;27;81165;-64
2021/10/20 09:13:39;;;;;;;13.27;5.55;;;20.00;54.30;;;;;;20877885;27;83644;-61
2021/10/20 09:23:41;;;;;;;10.23;3.97;;;20.70;52.70;;;;;;20875521;27;80916;-62
2021/10/20 09:33:45;;;;;;;14.00;5.00;;;21.30;51.20;;;;;;20867788;28;80752;-63
2021/10/20 09:43:57;;;;;;;17.50;4.60;;;21.90;49.40;;;;;;20871774;27;81507;-62
2021/10/20 09:54:00;;;;;;;11.15;5.25;;;22.10;48.60;;;;;;20873757;27;81473;-62
2021/10/20 10:04:04;;;;;;;9.83;5.93;;;22.60;47.60;;;;;;20872670;27;81838;-62
2021/10/20 10:14:07;;;;;;;8.77;4.60;;;25.10;41.90;;;;;;20871554;27;82119;-63
2021/10/20 10:24:11;;;;;;;11.68;5.00;;;26.80;38.20;;;;;;20869697;27;82616;-63
2021/10/20 10:34:39;;;;;;;11.07;4.57;;;27.30;37.70;;;;;;20870494;27;81214;-62
2021/10/20 10:44:49;;;;;;;8.82;4.30;;;30.30;33.30;;;;;;20862966;28;81785;-62
2021/10/20 10:54:54;;;;;;;11.93;3.90;;;35.20;27.20;;;;;;20869700;27;81453;-64
2021/10/20 11:04:57;;;;;;;7.93;3.38;;;37.70;24.40;;;;;;20869884;28;81942;-62
2021/10/20 11:15:00;;;;;;;12.68;3.35;;;33.60;28.60;;;;;;20870081;27;81458;-70
2021/10/20 11:25:07;;;;;;;7.22;2.85;;;33.20;29.50;;;;;;20880633;27;81341;-64
2021/10/20 11:35:21;;;;;;;9.25;3.33;;;34.50;27.30;;;;;;20884031;27;81858;-62
2021/10/20 11:45:29;;;;;;;11.65;3.58;;;30.30;32.50;;;;;;20882870;28;82263;-62
2021/10/20 11:55:31;;;;;;;15.00;3.97;;;29.90;33.50;;;;;;20878474;27;81253;-65
2021/10/20 12:05:36;;;;;;;12.02;3.10;;;30.80;32.20;;;;;;20882429;28;82001;-64
2021/10/20 12:15:43;;;;;;;6.80;2.72;;;32.30;30.20;;;;;;20880875;27;82009;-62
2021/10/20 12:25:46;;;;;;;12.00;3.00;;;29.60;33.30;;;;;;20880500;27;82111;-62
2021/10/20 12:35:51;;;;;;;10.15;3.28;;;29.80;33.30;;;;;;20879449;28;83233;-63
2021/10/20 12:45:54;;;;;;;9.73;3.25;;;30.10;33.10;;;;;;20874308;27;81752;-63
2021/10/20 12:55:59;;;;;;;7.93;2.97;;;31.00;31.60;;;;;;20876372;27;81862;-64
2021/10/20 13:06:03;;;;;;;5.93;2.92;;;29.90;33.20;;;;;;20876262;27;81895;-64
2021/10/20 13:16:05;;;;;;;9.20;3.15;;;30.10;33.30;;;;;;20871964;28;82356;-64
2021/10/20 13:26:07;;;;;;;10.13;3.63;;;31.90;30.50;;;;;;20874751;28;81992;-63
2021/10/20 13:36:11;;;;;;;12.70;3.58;;;29.40;34.30;;;;;;20873014;27;81343;-62
2021/10/20 13:46:14;;;;;;;4.72;2.65;;;31.30;31.80;;;;;;20873687;28;81701;-63
2021/10/20 13:56:16;;;;;;;6.85;3.03;;;34.10;28.20;;;;;;20873752;27;81134;-65
2021/10/20 14:06:19;;;;;;;6.38;2.40;;;32.60;29.80;;;;;;20870422;28;81994;-62
2021/10/20 14:16:24;;;;;;;6.68;3.03;;;34.10;27.90;;;;;;20871260;28;81873;-62
2021/10/20 14:26:26;;;;;;;8.65;3.25;;;32.40;29.70;;;;;;20877043;28;81060;-70
2021/10/20 14:36:29;;;;;;;4.82;2.67;;;31.20;31.70;;;;;;20883961;27;81629;-70
2021/10/20 14:46:34;;;;;;;6.78;2.92;;;30.30;32.90;;;;;;20881563;27;81823;-67
2021/10/20 14:56:38;;;;;;;9.07;3.15;;;29.70;33.80;;;;;;20879949;27;80624;-65
2021/10/20 15:06:40;;;;;;;8.18;3.40;;;34.50;27.90;;;;;;20876810;27;80756;-64
2021/10/20 15:16:43;;;;;;;9.38;3.08;;;31.70;31.20;;;;;;20827424;27;80736;-66
2021/10/20 15:26:45;;;;;;;11.13;3.20;;;31.40;32.10;;;;;;20791477;28;80771;-67
2021/10/20 15:36:47;;;;;;;9.30;3.08;;;31.30;32.00;;;;;;20789067;28;82128;-62
2021/10/20 15:46:49;;;;;;;5.10;3.20;;;27.90;37.20;;;;;;20819708;28;80588;-66
2021/10/20 15:56:51;;;;;;;10.45;3.50;;;26.40;39.80;;;;;;20872358;28;80812;-65
2021/10/20 16:06:53;;;;;;;7.13;3.25;;;25.80;41.20;;;;;;20888590;27;81808;-66
2021/10/20 16:16:56;;;;;;;7.60;3.65;;;25.30;42.50;;;;;;20885203;28;82335;-66
2021/10/20 16:26:57;;;;;;;8.82;3.10;;;24.90;43.50;;;;;;20884376;28;80713;-69
2021/10/20 16:36:59;;;;;;;8.30;3.50;;;24.60;44.40;;;;;;20886631;27;80294;-67
2021/10/20 16:47:03;;;;;;;5.45;2.88;;;24.40;45.10;;;;;;20836359;28;81000;-65
2021/10/20 16:57:07;;;;;;;8.15;3.13;;;24.00;45.90;;;;;;20818380;28;81654;-69
2021/10/20 17:07:10;;;;;;;6.75;3.25;;;23.70;46.70;;;;;;20806238;28;79907;-64
2021/10/20 17:17:13;;;;;;;9.45;3.78;;;23.50;47.70;;;;;;20805023;28;80050;-62
2021/10/20 17:27:14;;;;;;;;;;;23.20;48.60;;;;;;20816089;28;81852;-65
2021/10/20 17:37:17;;;;;;;8.27;3.30;;;23.00;49.10;;;;;;20837174;28;81688;-62
2021/10/20 17:47:18;;;;;;;;;;;22.90;49.80;;;;;;20828103;28;80809;-63
2021/10/20 17:57:20;;;;;;;8.52;3.97;;;22.70;50.40;;;;;;20846140;28;80805;-62
2021/10/20 18:07:22;;;;;;;5.65;3.47;;;22.60;50.70;;;;;;20814649;28;80129;-68
2021/10/20 18:17:24;;;;;;;6.25;3.30;;;22.40;51.10;;;;;;20802445;28;80773;-67
2021/10/20 18:27:26;;;;;;;8.70;4.70;;;22.30;51.70;;;;;;20863763;27;80416;-68
2021/10/20 18:37:28;;;;;;;7.10;3.85;;;22.10;52.20;;;;;;20797981;28;81900;-70
2021/10/20 18:47:32;;;;;;;11.75;4.13;;;21.90;52.70;;;;;;20797958;28;81710;-68
2021/10/20 18:57:35;;;;;;;10.10;3.78;;;21.80;53.10;;;;;;20807829;28;81756;-67
2021/10/20 19:07:38;;;;;;;8.50;3.78;;;21.60;53.70;;;;;;20796086;28;81762;-66
2021/10/20 19:17:41;;;;;;;6.50;3.65;;;21.50;54.00;;;;;;20795656;28;80842;-70
2021/10/20 19:27:46;;;;;;;6.00;2.95;;;21.40;54.30;;;;;;20796079;28;81716;-70
2021/10/20 19:37:48;;;;;;;7.43;3.47;;;21.20;54.30;;;;;;20884876;27;80761;-71
2021/10/20 19:47:50;;;;;;;;;;;21.10;54.30;;;;;;20896892;27;81088;-70
2021/10/20 19:57:53;;;;;;;6.00;3.67;;;21.00;54.40;;;;;;20915818;27;80753;-70
2021/10/20 20:07:55;;;;;;;8.43;3.05;;;20.90;54.50;;;;;;20819865;27;80123;-69
2021/10/20 20:17:57;;;;;;;5.50;3.60;;;20.90;54.60;;;;;;20826679;28;81225;-68
2021/10/20 20:28:00;;;;;;;8.07;3.38;;;20.70;54.80;;;;;;20806762;28;81271;-69
2021/10/20 20:38:03;;;;;;;7.30;3.42;;;20.60;55.10;;;;;;20807566;28;81039;-69
2021/10/20 20:48:05;;;;;;;4.88;3.40;;;20.50;55.40;;;;;;20815200;28;81080;-68
2021/10/20 20:58:07;;;;;;;6.63;3.60;;;20.40;55.60;;;;;;20810109;27;84083;-70
2021/10/20 21:08:09;;;;;;;5.93;3.53;;;20.30;55.80;;;;;;20822283;28;81780;-70
2021/10/20 21:18:12;;;;;;;11.75;3.75;;;20.20;56.00;;;;;;20830336;28;81224;-71
2021/10/20 21:28:14;;;;;;;6.47;3.33;;;20.00;56.50;;;;;;20804550;28;80301;-70
2021/10/20 21:38:16;;;;;;;7.47;4.20;;;19.80;57.70;;;;;;20803897;28;81605;-70
2021/10/20 21:48:17;;;;;;;8.57;3.80;;;19.60;58.30;;;;;;20803263;28;81874;-69
2021/10/20 21:58:19;;;;;;;8.37;4.20;;;19.40;58.90;;;;;;20870697;27;82014;-69
2021/10/20 22:08:21;;;;;;;9.13;4.60;;;19.30;59.50;;;;;;20800513;28;80716;-68
2021/10/20 22:18:22;;;;;;;9.37;4.23;;;19.00;60.10;;;;;;20799850;28;81655;-69
2021/10/20 22:28:24;;;;;;;7.73;3.33;;;18.90;60.50;;;;;;20799035;28;80805;-70
2021/10/20 22:38:26;;;;;;;6.03;3.77;;;18.90;60.70;;;;;;20812216;28;80834;-69
2021/10/20 22:48:28;;;;;;;;;;;18.80;61.00;;;;;;20798086;28;82027;-70
2021/10/20 22:58:30;;;;;;;5.63;2.83;;;18.60;61.10;;;;;;20819091;28;81793;-70
2021/10/20 23:08:32;;;;;;;4.40;2.10;;;18.60;62.00;;;;;;20795875;28;80275;-69
2021/10/20 23:18:33;;;;;;;5.27;2.33;;;18.50;62.50;;;;;;20809489;28;80876;-70
2021/10/20 23:28:35;;;;;;;3.97;1.67;;;18.50;62.30;;;;;;20811130;28;81747;-70
2021/10/20 23:38:38;;;;;;;4.37;2.20;;;18.50;62.10;;;;;;20809820;28;82004;-69
2021/10/20 23:48:40;;;;;;;2.97;1.65;;;18.40;61.80;;;;;;20808188;28;81952;-70
2021/10/20 23:58:42;;;;;;;4.40;1.70;;;18.40;61.80;;;;;;20806926;28;80678;-69
